Time;durP1;ratioP1;P1;durP2;ratioP2;P2;SDS_P1;SDS_P2;PMS_P1;PMS_P2;Temp;Humidity;BMP_temperature;BMP_pressure;BME280_temperature;BME280_humidity;BME280_pressure;Samples;Min_cycle;Max_cycle;Signal;HPM_P1;HPM_P2
2022/04/18 00:02:11;;;;;;;3.40;1.80;;;;;;;0.45;100.00;92535.16;5029774;28;20065;-81
2022/04/18 00:04:38;;;;;;;1.90;1.00;;;;;;;0.54;100.00;92540.97;5029418;28;20052;-81
2022/04/18 00:07:06;;;;;;;2.42;1.67;;;;;;;0.48;100.00;92536.56;5029242;28;20063;-81
2022/04/18 00:09:33;;;;;;;2.25;1.50;;;;;;;0.57;100.00;92552.47;5029909;28;20056;-81
2022/04/18 00:12:01;;;;;;;2.38;1.90;;;;;;;0.64;100.00;92553.38;5029158;28;20042;-80
2022/04/18 00:14:27;;;;;;;2.38;1.92;;;;;;;0.16;100.00;92498.66;5029462;28;20095;-82
2022/04/18 00:16:54;;;;;;;2.13;1.58;;;;;;;0.51;100.00;92549.66;5029501;28;20057;-80
2022/04/18 00:19:21;;;;;;;3.22;2.65;;;;;;;0.55;100.00;92549.34;5029088;28;20100;-81
2022/04/18 00:21:48;;;;;;;2.67;1.80;;;;;;;0.55;100.00;92560.22;5029597;28;20408;-81
2022/04/18 00:24:19;;;;;;;3.40;2.25;;;;;;;0.29;100.00;92527.63;5029564;28;20754;-81
2022/04/18 00:26:46;;;;;;;3.33;2.30;;;;;;;0.49;100.00;92544.00;5029354;28;20037;-81
2022/04/18 00:29:13;;;;;;;2.50;1.70;;;;;;;0.48;100.00;92566.88;5029564;28;20041;-81
2022/04/18 00:31:40;;;;;;;2.30;1.48;;;;;;;0.50;100.00;92550.63;5028911;28;20042;-81
2022/04/18 00:34:07;;;;;;;2.65;1.83;;;;;;;0.53;100.00;92550.31;5029433;28;20045;-81
2022/04/18 00:36:34;;;;;;;2.72;1.80;;;;;;;0.38;100.00;92526.66;5029311;28;20049;-81
2022/04/18 00:39:01;;;;;;;2.63;1.65;;;;;;;0.53;100.00;92537.66;5029310;28;20123;-81
2022/04/18 00:41:29;;;;;;;2.28;1.55;;;;;;;0.55;100.00;92562.75;5029056;28;20046;-81
2022/04/18 00:43:56;;;;;;;2.30;1.80;;;;;;;0.56;100.00;92545.84;5029076;28;20868;-81
2022/04/18 00:46:23;;;;;;;2.50;1.73;;;;;;;0.38;100.00;92519.09;5029041;28;20132;-81
2022/04/18 00:48:50;;;;;;;2.40;1.60;;;;;;;0.34;100.00;92528.75;5029251;28;20045;-81
2022/04/18 00:51:20;;;;;;;6.60;3.40;;;;;;;0.54;100.00;92551.06;5028661;28;20045;-81
2022/04/18 00:53:47;;;;;;;2.80;1.90;;;;;;;0.59;100.00;92548.84;5029087;28;20050;-81
2022/04/18 00:56:17;;;;;;;2.72;1.73;;;;;;;-0.29;100.00;92430.94;5028917;28;20480;-81
2022/04/18 00:58:47;;;;;;;2.78;2.03;;;;;;;0.63;100.00;92552.63;5028874;28;20053;-81
2022/04/18 01:01:15;;;;;;;3.88;1.75;;;;;;;0.49;100.00;92533.88;4837458;28;5001706;-79
2022/04/18 01:03:43;;;;;;;2.63;1.77;;;;;;;0.62;100.00;92552.78;5029440;28;20092;-80
2022/04/18 01:06:11;;;;;;;2.58;1.95;;;;;;;0.47;100.00;92530.72;5032600;28;20056;-81
2022/04/18 01:08:38;;;;;;;2.90;1.90;;;;;;;0.60;100.00;92549.63;5032834;28;20049;-81
2022/04/18 01:11:06;;;;;;;3.58;2.10;;;;;;;0.62;100.00;92545.19;5033094;28;20076;-81
2022/04/18 01:13:40;;;;;;;2.00;1.48;;;;;;;0.53;100.00;92549.50;5032855;28;20052;-81
2022/04/18 01:16:09;;;;;;;3.00;2.00;;;;;;;0.49;100.00;92535.59;5032646;28;20056;-81
2022/04/18 01:18:36;;;;;;;2.25;1.55;;;;;;;0.57;100.00;92555.00;5032624;28;20045;-81
2022/04/18 01:21:04;;;;;;;3.63;1.90;;;;;;;0.36;100.00;92524.31;5032615;28;20041;-80
2022/04/18 01:23:32;;;;;;;2.13;1.73;;;;;;;0.60;100.00;92544.59;5032301;28;20049;-81
2022/04/18 01:29:02;;;;;;;3.25;1.80;;;;;;;0.51;100.00;92539.53;5032301;28;20052;-81
2022/04/18 01:31:31;;;;;;;2.80;1.92;;;;;;;0.39;100.00;92520.66;5032205;28;20099;-81
2022/04/18 01:33:58;;;;;;;2.50;1.83;;;;;;;0.11;100.00;92490.78;5031990;28;20048;-81
2022/04/18 01:36:27;;;;;;;3.47;2.03;;;;;;;0.44;100.00;92532.78;5032246;28;20052;-80
2022/04/18 01:38:55;;;;;;;2.45;1.80;;;;;;;0.45;100.00;92534.34;5032261;28;20037;-80
2022/04/18 01:41:22;;;;;;;2.72;1.75;;;;;;;0.45;100.00;92526.78;5031818;28;20048;-81
2022/04/18 01:43:49;;;;;;;2.85;1.92;;;;;;;0.40;100.00;92499.50;5032342;28;20056;-81
2022/04/18 01:46:16;;;;;;;4.68;2.40;;;;;;;0.42;100.00;92519.53;5031678;28;20050;-81
2022/04/18 01:48:43;;;;;;;2.42;1.65;;;;;;;0.39;100.00;92513.88;5031636;28;20037;-81
2022/04/18 01:51:10;;;;;;;2.35;1.67;;;;;;;0.41;100.00;92512.91;5032055;28;20049;-81
2022/04/18 01:53:39;;;;;;;2.80;1.95;;;;;;;0.11;100.00;92465.50;5031666;28;20049;-79
2022/04/18 01:56:06;;;;;;;2.97;1.73;;;;;;;0.37;100.00;92522.56;5031501;28;20484;-81
2022/04/18 01:58:33;;;;;;;2.90;1.92;;;;;;;0.38;100.00;92514.81;5031960;28;20045;-79
2022/04/18 02:01:00;;;;;;;3.00;2.30;;;;;;;0.34;100.00;92517.84;5031698;28;20382;-80
2022/04/18 02:03:27;;;;;;;3.15;2.38;;;;;;;0.11;100.00;92460.47;5031690;28;20042;-81
2022/04/18 02:05:55;;;;;;;2.38;1.77;;;;;;;0.25;100.00;92492.63;5031455;28;20099;-81
2022/04/18 02:08:23;;;;;;;2.55;1.88;;;;;;;0.23;100.00;92486.94;5031860;28;20047;-81
2022/04/18 02:10:51;;;;;;;2.65;2.00;;;;;;;0.10;100.00;92463.94;5031356;28;20133;-80
2022/04/18 02:13:18;;;;;;;3.35;2.22;;;;;;;0.32;100.00;92494.47;5031573;28;21149;-81
2022/04/18 02:15:45;;;;;;;5.30;2.60;;;;;;;0.34;100.00;92512.78;5031161;28;20100;-81
2022/04/18 02:18:12;;;;;;;2.65;2.08;;;;;;;0.36;100.00;92491.47;5031422;28;20045;-81
2022/04/18 02:20:39;;;;;;;3.67;2.65;;;;;;;0.26;100.00;92473.19;5031394;28;20049;-80
2022/04/18 02:23:06;;;;;;;4.88;2.80;;;;;;;0.34;100.00;92488.31;5031511;28;20041;-80
2022/04/18 02:25:33;;;;;;;3.80;2.50;;;;;;;0.30;100.00;92478.69;5031494;28;20065;-81
2022/04/18 02:28:02;;;;;;;4.07;2.88;;;;;;;0.29;100.00;92482.97;5030890;28;20045;-80
2022/04/18 02:30:28;;;;;;;3.63;2.50;;;;;;;0.17;100.00;92459.00;5031246;28;20053;-82
2022/04/18 02:32:56;;;;;;;3.00;2.53;;;;;;;0.12;100.00;92467.09;5031105;28;20042;-81
2022/04/18 02:35:24;;;;;;;3.83;3.10;;;;;;;0.24;100.00;92478.41;5030871;28;20496;-81
2022/04/18 02:37:52;;;;;;;3.72;3.00;;;;;;;-0.02;100.00;92486.22;5031299;28;20097;-83
2022/04/18 02:40:19;;;;;;;7.10;3.95;;;;;;;0.17;100.00;92494.38;5030758;28;20408;-82
2022/04/18 02:42:46;;;;;;;5.25;2.88;;;;;;;0.05;100.00;92476.28;5031084;28;20061;-83
2022/04/18 02:45:16;;;;;;;3.47;2.60;;;;;;;-0.05;100.00;92453.75;5030884;28;20091;-83
2022/04/18 02:47:43;;;;;;;4.95;3.22;;;;;;;0.18;100.00;92489.16;5030809;28;20489;-82
2022/04/18 02:50:10;;;;;;;3.63;2.55;;;;;;;0.15;100.00;92488.69;5030989;28;20040;-82
2022/04/18 02:52:37;;;;;;;3.03;2.30;;;;;;;0.16;100.00;92482.69;5030907;28;20072;-82
2022/04/18 02:55:05;;;;;;;3.33;2.42;;;;;;;0.17;100.00;92484.25;5031179;28;20079;-82
2022/04/18 02:57:32;;;;;;;2.85;2.50;;;;;;;-0.14;100.00;92448.72;5030816;28;20041;-82
2022/04/18 02:59:59;;;;;;;2.85;2.40;;;;;;;-0.09;100.00;92452.50;5030740;28;20124;-83
2022/04/18 03:02:27;;;;;;;5.00;2.75;;;;;;;0.08;100.00;92458.25;5030854;28;20064;-81
2022/04/18 03:04:54;;;;;;;3.70;2.45;;;;;;;-0.03;100.00;92465.25;5030700;28;20049;-84
2022/04/18 03:07:20;;;;;;;2.47;1.98;;;;;;;-0.33;100.00;92423.88;5030892;28;20060;-85
2022/04/18 03:09:47;;;;;;;4.80;2.83;;;;;;;0.22;100.00;92495.47;5030728;28;20057;-82
2022/04/18 03:12:14;;;;;;;2.95;2.10;;;;;;;0.01;100.00;92470.78;5030302;28;20061;-83
2022/04/18 03:14:41;;;;;;;3.47;2.33;;;;;;;0.08;100.00;92491.88;5030104;28;20049;-82
2022/04/18 03:17:09;;;;;;;3.65;2.40;;;;;;;-0.04;100.00;92483.84;5030183;28;20041;-82
2022/04/18 03:19:37;;;;;;;3.75;2.47;;;;;;;-0.01;100.00;92483.56;5030268;28;20053;-82
2022/04/18 03:22:04;;;;;;;3.00;2.10;;;;;;;-0.05;100.00;92486.56;5030247;28;20038;-82
2022/04/18 03:24:31;;;;;;;2.55;1.90;;;;;;;-0.35;100.00;92466.13;5030273;28;20045;-83
2022/04/18 03:26:58;;;;;;;3.63;2.38;;;;;;;-0.24;100.00;92477.63;5029501;28;20049;-82
2022/04/18 03:29:25;;;;;;;2.70;2.00;;;;;;;-0.07;100.00;92494.31;5030049;28;20054;-82
2022/04/18 03:31:53;;;;;;;2.15;1.52;;;;;;;-0.39;100.00;92458.09;5029902;28;20049;-82
2022/04/18 03:34:20;;;;;;;4.72;3.10;;;;;;;-0.22;100.00;92480.78;5029949;28;21136;-82
2022/04/18 03:39:52;;;;;;;2.15;1.33;;;;;;;-0.14;100.00;92505.97;5029990;28;20051;-82
2022/04/18 03:42:28;;;;;;;2.60;1.65;;;;;;;-0.24;100.00;92500.34;5029923;28;20045;-79
2022/04/18 03:44:56;;;;;;;2.67;1.70;;;;;;;-0.33;100.00;92490.25;5029933;28;20052;-81
2022/04/18 03:47:23;;;;;;;3.20;1.75;;;;;;;-0.37;100.00;92483.94;5029571;28;20042;-80
2022/04/18 03:49:50;;;;;;;3.30;1.92;;;;;;;-0.25;100.00;92499.53;5029635;28;20048;-80
2022/04/18 03:52:18;;;;;;;3.10;2.35;;;;;;;-0.15;100.00;92507.72;5029662;28;20091;-80
2022/04/18 03:54:46;;;;;;;4.97;2.90;;;;;;;-0.17;100.00;92512.16;5029867;28;20049;-79
2022/04/18 03:57:13;;;;;;;7.95;4.15;;;;;;;-0.19;100.00;92505.69;5029707;28;20128;-80
2022/04/18 03:59:40;;;;;;;11.40;5.15;;;;;;;-0.27;100.00;92502.22;5029447;28;20481;-80
2022/04/18 04:02:08;;;;;;;6.03;3.63;;;;;;;-0.14;100.00;92516.88;5029576;28;20042;-80
2022/04/18 04:04:36;;;;;;;3.78;2.10;;;;;;;-0.19;100.00;92518.31;5029627;28;20148;-80
2022/04/18 04:07:03;;;;;;;3.85;2.60;;;;;;;-0.22;100.00;92518.63;5029681;28;20048;-80
2022/04/18 04:09:32;;;;;;;5.07;3.70;;;;;;;-0.22;100.00;92516.91;5029993;28;20477;-81
2022/04/18 04:11:59;;;;;;;3.83;2.80;;;;;;;-0.27;100.00;92516.59;5029812;28;20107;-80
2022/04/18 04:14:26;;;;;;;3.42;2.13;;;;;;;-0.23;100.00;92522.88;5029312;28;20041;-80
2022/04/18 04:16:52;;;;;;;2.42;1.70;;;;;;;-0.30;100.00;92521.94;5029561;28;20041;-80
2022/04/18 04:19:19;;;;;;;2.88;1.83;;;;;;;-0.36;100.00;92500.69;5029225;28;20124;-80
2022/04/18 04:21:46;;;;;;;5.00;2.88;;;;;;;-0.19;100.00;92526.66;5029420;28;20041;-80
2022/04/18 04:24:13;;;;;;;4.82;2.25;;;;;;;-0.20;100.00;92515.00;5029280;28;20400;-80
2022/04/18 04:26:41;;;;;;;6.90;2.78;;;;;;;-0.19;100.00;92528.41;5029544;28;20046;-80
2022/04/18 04:29:08;;;;;;;2.88;2.03;;;;;;;-0.39;100.00;92495.16;5030066;28;20061;-80
2022/04/18 04:31:35;;;;;;;3.33;2.17;;;;;;;-0.19;100.00;92530.94;5029502;28;20041;-79
2022/04/18 04:34:01;;;;;;;3.63;2.33;;;;;;;-0.16;100.00;92521.31;5029381;28;20049;-79
2022/04/18 04:36:28;;;;;;;3.72;3.00;;;;;;;-0.20;100.00;92526.81;5029033;28;20042;-80
2022/04/18 04:38:55;;;;;;;3.50;2.22;;;;;;;-0.36;100.00;92492.31;5031959;28;20423;-80
2022/04/18 04:41:22;;;;;;;2.75;1.77;;;;;;;-0.25;100.00;92526.50;5033021;28;20477;-80
2022/04/18 04:43:50;;;;;;;3.38;2.40;;;;;;;-0.19;100.00;92519.09;5033217;28;20480;-80
2022/04/18 04:46:17;;;;;;;4.72;3.63;;;;;;;-0.12;100.00;92520.97;5033160;28;20096;-80
2022/04/18 04:48:44;;;;;;;4.22;2.85;;;;;;;-0.03;100.00;92525.06;5033244;28;20042;-80
2022/04/18 04:51:10;;;;;;;2.97;2.20;;;;;;;-0.21;100.00;92515.16;5033209;28;20072;-81
2022/04/18 04:53:37;;;;;;;4.97;3.60;;;;;;;-0.06;100.00;92518.59;5032649;28;20524;-80
2022/04/18 04:56:04;;;;;;;5.97;3.60;;;;;;;-0.07;100.00;92522.06;5033126;28;20046;-81
2022/04/18 04:58:31;;;;;;;4.63;3.13;;;;;;;-0.06;100.00;92528.69;5032820;28;20033;-81
2022/04/18 05:00:59;;;;;;;4.82;3.25;;;;;;;0.03;100.00;92528.66;5032957;28;20152;-80
2022/04/18 05:03:27;;;;;;;7.28;5.10;;;;;;;-0.01;100.00;92513.84;5032644;28;20044;-80
2022/04/18 05:05:54;;;;;;;4.95;3.22;;;;;;;0.00;100.00;92524.75;5032969;28;20059;-79
2022/04/18 05:08:21;;;;;;;5.80;3.65;;;;;;;0.02;100.00;92530.41;5032472;28;20049;-80
2022/04/18 05:10:48;;;;;;;8.10;5.57;;;;;;;0.06;100.00;92533.41;5033050;28;20125;-79
2022/04/18 05:13:15;;;;;;;5.53;4.43;;;;;;;-0.07;100.00;92489.25;5032614;28;20423;-81
2022/04/18 05:15:42;;;;;;;5.03;3.75;;;;;;;0.12;100.00;92512.53;5032539;28;20041;-81
2022/04/18 05:18:10;;;;;;;5.88;3.70;;;;;;;0.10;100.00;92511.94;5032789;28;21104;-81
2022/04/18 05:20:36;;;;;;;4.68;3.70;;;;;;;0.19;100.00;92523.56;5032622;28;20108;-81
2022/04/18 05:23:03;;;;;;;7.63;4.95;;;;;;;0.26;100.00;92538.84;5032396;28;20042;-80
2022/04/18 05:25:31;;;;;;;8.40;5.07;;;;;;;0.24;100.00;92533.97;5032482;28;20111;-80
2022/04/18 05:27:58;;;;;;;16.25;9.23;;;;;;;0.35;100.00;92539.63;5029312;28;20042;-80
2022/04/18 05:30:25;;;;;;;10.50;7.32;;;;;;;0.26;100.00;92523.69;5030198;28;20527;-80
2022/04/18 05:32:52;;;;;;;8.02;5.53;;;;;;;0.43;100.00;92532.00;5032599;28;20050;-80
2022/04/18 05:35:21;;;;;;;6.43;4.80;;;;;;;0.52;100.00;92527.72;5032128;28;20045;-80
2022/04/18 05:37:48;;;;;;;7.15;5.68;;;;;;;0.38;100.00;92494.59;5032410;28;20437;-80
2022/04/18 05:40:15;;;;;;;7.45;4.88;;;;;;;0.66;100.00;92509.31;5031881;28;20857;-81
2022/04/18 05:42:42;;;;;;;6.20;4.75;;;;;;;0.73;100.00;92536.44;5032887;28;20053;-81
2022/04/18 05:45:10;;;;;;;4.78;3.92;;;;;;;0.66;100.00;92526.22;5032788;28;20057;-81
2022/04/18 05:47:37;;;;;;;5.40;4.32;;;;;;;0.66;100.00;92521.94;5031821;28;20042;-81
2022/04/18 05:50:04;;;;;;;6.43;4.47;;;;;;;0.69;100.00;92536.00;5030973;28;20049;-81
2022/04/18 05:52:33;;;;;;;6.15;4.07;;;;;;;0.81;100.00;92528.81;5031784;28;20045;-81
2022/04/18 05:55:00;;;;;;;8.90;5.30;;;;;;;0.99;100.00;92532.81;5032036;28;20065;-81
2022/04/18 05:57:27;;;;;;;7.47;5.25;;;;;;;1.02;100.00;92540.09;5031677;28;20512;-80
2022/04/18 05:59:53;;;;;;;7.25;4.95;;;;;;;1.21;100.00;92546.44;5031936;28;20378;-81
2022/04/18 06:02:20;;;;;;;5.53;3.50;;;;;;;1.04;100.00;92564.25;5031467;28;20045;-81
2022/04/18 06:04:47;;;;;;;5.20;3.72;;;;;;;1.09;100.00;92548.56;5031825;28;20057;-82
2022/04/18 06:07:14;;;;;;;5.28;4.10;;;;;;;1.29;100.00;92538.03;5031542;28;20128;-81
2022/04/18 06:09:42;;;;;;;4.40;3.47;;;;;;;1.09;100.00;92540.19;5031806;28;20053;-81
2022/04/18 06:12:09;;;;;;;6.55;4.57;;;;;;;1.38;100.00;92538.75;5031591;28;20052;-81
2022/04/18 06:14:36;;;;;;;12.10;7.80;;;;;;;1.42;100.00;92545.81;5031622;28;20053;-81
2022/04/18 06:17:03;;;;;;;19.23;10.65;;;;;;;1.44;100.00;92548.19;5031689;28;20053;-81
2022/04/18 06:19:30;;;;;;;7.30;5.65;;;;;;;1.46;100.00;92526.00;5031649;28;20481;-80
2022/04/18 06:21:57;;;;;;;6.32;3.55;;;;;;;1.50;100.00;92556.81;5031343;28;20673;-80
2022/04/18 06:24:24;;;;;;;5.13;3.67;;;;;;;1.53;100.00;92541.31;5031456;28;20046;-80
2022/04/18 06:26:52;;;;;;;7.80;5.50;;;;;;;1.66;100.00;92544.03;5031458;28;20038;-80
2022/04/18 06:29:19;;;;;;;6.28;4.43;;;;;;;1.51;100.00;92549.06;5028471;28;20041;-81
2022/04/18 06:31:46;;;;;;;5.63;4.78;;;;;;;1.63;100.00;92549.47;5029637;28;20124;-80
2022/04/18 06:34:13;;;;;;;8.77;5.57;;;;;;;1.75;100.00;92536.38;5030328;28;20150;-80
2022/04/18 06:36:40;;;;;;;6.38;4.40;;;;;;;1.79;100.00;92547.72;5031013;28;20129;-80
2022/04/18 06:39:07;;;;;;;7.80;4.97;;;;;;;1.82;100.00;92570.97;5031196;28;20056;-80
2022/04/18 06:41:34;;;;;;;9.82;5.82;;;;;;;1.79;100.00;92561.19;5031166;28;20052;-80
2022/04/18 06:44:02;;;;;;;9.40;7.65;;;;;;;1.83;100.00;92546.44;5030976;28;20057;-80
2022/04/18 06:46:29;;;;;;;6.65;4.13;;;;;;;1.48;100.00;92559.53;5030960;28;20407;-80
2022/04/18 06:48:56;;;;;;;8.50;5.60;;;;;;;1.16;100.00;92508.22;5030878;28;20052;-81
2022/04/18 06:51:23;;;;;;;15.00;9.40;;;;;;;1.81;100.00;92553.41;5030910;28;20436;-79
2022/04/18 06:53:49;;;;;;;5.53;3.90;;;;;;;1.71;100.00;92562.03;5030559;28;20485;-79
2022/04/18 06:59:02;;;;;;;7.88;5.43;;;;;;;1.79;100.00;92553.59;5030316;28;20056;-79
2022/04/18 07:01:28;;;;;;;6.45;5.00;;;;;;;1.96;100.00;92540.78;5030921;28;21124;-81
2022/04/18 07:03:55;;;;;;;5.40;3.95;;;;;;;1.82;100.00;92565.91;5029863;28;20050;-78
2022/04/18 07:06:23;;;;;;;9.60;7.38;;;;;;;2.10;100.00;92579.75;5030200;28;20037;-80
2022/04/18 07:08:50;;;;;;;5.97;4.03;;;;;;;2.08;100.00;92574.84;5030131;28;20041;-79
2022/04/18 07:11:17;;;;;;;6.88;3.90;;;;;;;2.18;100.00;92566.97;4682778;28;10000618;-80
2022/04/18 07:13:44;;;;;;;4.80;3.20;;;;;;;2.21;100.00;92581.84;5030166;28;20041;-80
2022/04/18 07:16:12;;;;;;;23.00;15.95;;;;;;;2.04;100.00;92581.22;5030295;28;20045;-80
2022/04/18 07:18:39;;;;;;;13.80;8.60;;;;;;;2.39;100.00;92557.91;5029995;28;20107;-79
2022/04/18 07:21:05;;;;;;;6.45;5.00;;;;;;;2.49;100.00;92585.50;5029733;28;20076;-79
2022/04/18 07:23:32;;;;;;;6.15;4.35;;;;;;;2.48;100.00;92561.13;5027802;28;20088;-81
2022/04/18 07:25:59;;;;;;;5.22;4.13;;;;;;;2.31;100.00;92565.59;5029225;28;20069;-79
2022/04/18 07:28:26;;;;;;;5.82;4.40;;;;;;;2.61;100.00;92573.19;5029360;28;20481;-79
2022/04/18 07:30:53;;;;;;;5.07;4.18;;;;;;;2.50;100.00;92570.13;5029416;28;20050;-79
2022/04/18 07:33:21;;;;;;;5.05;3.90;;;;;;;2.65;100.00;92572.66;5029461;28;20041;-79
2022/04/18 07:35:48;;;;;;;5.70;4.15;;;;;;;2.93;100.00;92577.06;5029395;28;20041;-79
2022/04/18 07:41:04;;;;;;;16.20;10.30;;;;;;;3.00;100.00;92578.91;5015648;28;20412;-79
2022/04/18 07:43:34;;;;;;;4.82;3.78;;;;;;;2.57;100.00;92584.63;5029367;28;20069;-79
2022/04/18 07:46:01;;;;;;;4.95;3.72;;;;;;;2.46;100.00;92599.31;5029050;28;20083;-79
2022/04/18 07:48:29;;;;;;;5.60;4.22;;;;;;;2.12;100.00;92563.41;5029191;28;20487;-79
2022/04/18 07:53:41;;;;;;;5.00;3.95;;;;;;;2.07;100.00;92613.81;5028749;28;20044;-79
2022/04/18 07:56:08;;;;;;;4.47;3.33;;;;;;;2.30;100.00;92594.44;5029132;28;20048;-79
2022/04/18 07:58:35;;;;;;;11.73;6.30;;;;;;;2.46;100.00;92596.03;5028409;28;20041;-79
2022/04/18 08:01:02;;;;;;;4.10;3.20;;;;;;;2.43;100.00;92592.09;5027939;28;20409;-80
2022/04/18 08:03:34;;;;;;;5.60;4.47;;;;;;;2.70;100.00;92594.16;5026675;28;20182;-79
2022/04/18 08:06:01;;;;;;;9.80;4.25;;;;;;;2.43;100.00;92592.09;5028514;28;20060;-79
2022/04/18 08:08:28;;;;;;;14.23;8.85;;;;;;;2.86;100.00;92590.66;5029430;28;20060;-79
2022/04/18 08:10:55;;;;;;;4.70;3.40;;;;;;;2.53;100.00;92592.63;5029316;28;20099;-80
2022/04/18 08:13:21;;;;;;;5.90;3.90;;;;;;;2.43;100.00;92592.09;5028943;28;20037;-79
2022/04/18 08:15:48;;;;;;;4.47;3.30;;;;;;;2.39;100.00;92568.84;5029729;28;20045;-79
2022/04/18 08:18:15;;;;;;;4.57;3.30;;;;;;;2.12;100.00;92570.22;5029657;28;20041;-79
2022/04/18 08:20:43;;;;;;;5.25;3.53;;;;;;;2.41;100.00;92586.41;5029457;28;20053;-80
2022/04/18 08:23:10;;;;;;;5.63;3.67;;;;;;;2.60;100.00;92584.31;5029537;28;20056;-80
2022/04/18 08:25:37;;;;;;;5.35;3.28;;;;;;;2.39;100.00;92594.19;5029178;28;20060;-79
2022/04/18 08:28:05;;;;;;;10.80;7.22;;;;;;;2.20;100.00;92584.56;5010631;28;20500;-79
2022/04/18 08:30:32;;;;;;;7.28;5.40;;;;;;;2.17;100.00;92559.56;5010450;28;20053;-79
2022/04/18 08:32:58;;;;;;;6.05;3.33;;;;;;;2.34;100.00;92580.44;5012814;28;20509;-80
2022/04/18 08:35:26;;;;;;;7.45;4.70;;;;;;;2.77;100.00;92589.94;5016475;28;20041;-79
2022/04/18 08:37:54;;;;;;;7.57;4.13;;;;;;;2.60;100.00;92581.75;5027436;28;20594;-80
2022/04/18 08:40:21;;;;;;;4.30;3.13;;;;;;;2.14;100.00;92579.22;5027575;28;20046;-80
2022/04/18 08:42:50;;;;;;;11.55;6.70;;;;;;;2.82;100.00;92582.59;5024291;28;20184;-79
2022/04/18 08:45:17;;;;;;;9.02;7.25;;;;;;;2.90;100.00;92595.19;5027450;28;21263;-80
2022/04/18 08:53:16;;;;;;;6.22;4.07;;;;;;;2.85;100.00;92576.38;5028965;28;20090;-79
2022/04/18 08:55:43;;;;;;;9.18;5.90;;;;;;;2.72;100.00;92589.72;5029326;28;20049;-79
2022/04/18 08:58:11;;;;;;;18.45;10.23;;;;;;;2.92;100.00;92588.19;5029160;28;20049;-80
2022/04/18 09:00:40;;;;;;;20.63;11.25;;;;;;;2.72;100.00;92571.97;5028961;28;20129;-79
2022/04/18 09:03:07;;;;;;;16.35;8.90;;;;;;;3.20;100.00;92599.44;5028858;28;20045;-79
2022/04/18 09:05:35;;;;;;;22.90;11.63;;;;;;;2.94;100.00;92596.41;5029024;28;20060;-79
2022/04/18 09:08:04;;;;;;;13.82;7.15;;;;;;;2.80;100.00;92579.47;5029185;28;20044;-79
2022/04/18 09:10:33;;;;;;;44.85;19.88;;;;;;;2.83;100.00;92555.50;5029090;28;20049;-79
2022/04/18 09:13:04;;;;;;;11.98;7.72;;;;;;;2.84;100.00;92590.84;5028959;28;20037;-79
2022/04/18 09:15:35;;;;;;;4.22;3.03;;;;;;;2.89;100.00;92580.16;5029101;28;20129;-79
2022/04/18 09:18:13;;;;;;;5.35;3.30;;;;;;;2.64;100.00;92585.53;5028667;28;20049;-79
2022/04/18 09:20:45;;;;;;;5.38;3.78;;;;;;;2.90;100.00;92592.66;5028507;28;20485;-79
2022/04/18 09:23:23;;;;;;;9.60;6.10;;;;;;;3.23;100.00;92583.81;5028743;28;20041;-78
2022/04/18 09:25:55;;;;;;;10.77;7.65;;;;;;;2.86;100.00;92571.13;5031175;28;20038;-79
2022/04/18 09:28:26;;;;;;;12.25;8.15;;;;;;;2.75;100.00;92590.16;5032543;28;20044;-79
2022/04/18 09:31:00;;;;;;;6.82;3.65;;;;;;;3.09;100.00;92589.75;5032522;28;20432;-79
2022/04/18 09:33:32;;;;;;;6.57;4.45;;;;;;;3.16;100.00;92593.13;5032484;28;20044;-79
2022/04/18 09:36:09;;;;;;;3.95;2.40;;;;;;;3.06;100.00;92606.88;5031903;28;20049;-80
2022/04/18 09:38:41;;;;;;;3.72;2.80;;;;;;;2.90;100.00;92581.72;5031945;28;20050;-79
2022/04/18 09:41:12;;;;;;;4.40;2.88;;;;;;;3.19;100.00;92598.63;5031901;28;20045;-79
2022/04/18 09:43:41;;;;;;;4.00;2.30;;;;;;;3.08;100.00;92596.56;5031720;28;20524;-79
2022/04/18 09:46:10;;;;;;;4.68;3.65;;;;;;;3.16;100.00;92588.81;5032231;28;20052;-79
2022/04/18 09:48:37;;;;;;;3.08;2.53;;;;;;;2.90;100.00;92590.13;5032033;28;20162;-79
2022/04/18 09:51:11;;;;;;;3.00;2.47;;;;;;;2.93;100.00;92587.22;5032066;28;20038;-79
2022/04/18 09:53:39;;;;;;;3.15;2.30;;;;;;;2.97;100.00;92597.03;5031468;28;20096;-79
2022/04/18 09:56:07;;;;;;;2.47;1.83;;;;;;;3.15;100.00;92594.88;5031818;28;20045;-79
2022/04/18 09:58:36;;;;;;;3.13;2.08;;;;;;;3.18;100.00;92589.44;5031680;28;20436;-79
2022/04/18 10:01:05;;;;;;;3.58;2.47;;;;;;;3.30;100.00;92587.22;5031761;28;20493;-79
2022/04/18 10:03:32;;;;;;;3.88;2.38;;;;;;;2.94;100.00;92582.94;5031505;28;20092;-79
2022/04/18 10:06:00;;;;;;;4.00;2.40;;;;;;;3.23;100.00;92586.34;5031714;28;20053;-79
2022/04/18 10:08:28;;;;;;;5.13;3.00;;;;;;;3.22;100.00;92574.63;5031618;28;20385;-79
2022/04/18 10:10:58;;;;;;;4.18;2.42;;;;;;;3.18;100.00;92596.25;5031714;28;20041;-79
2022/04/18 10:13:25;;;;;;;3.97;2.10;;;;;;;3.39;100.00;92579.47;5031574;28;20088;-79
2022/04/18 10:15:54;;;;;;;7.47;4.25;;;;;;;3.47;100.00;92575.06;5031732;28;20052;-79
2022/04/18 10:18:22;;;;;;;5.18;3.22;;;;;;;3.31;100.00;92593.09;5031455;28;20394;-78
2022/04/18 10:21:04;;;;;;;4.30;2.50;;;;;;;3.48;100.00;92586.03;5031324;28;20542;-79
2022/04/18 10:23:51;;;;;;;5.63;3.75;;;;;;;3.75;100.00;92573.53;5031637;28;20618;-79
2022/04/18 10:26:50;;;;;;;4.65;3.20;;;;;;;3.76;100.00;92574.31;5028223;28;20042;-79
2022/04/18 10:29:23;;;;;;;5.03;2.92;;;;;;;3.55;100.00;92593.69;5024777;28;20050;-79
2022/04/18 10:31:53;;;;;;;3.53;2.20;;;;;;;3.24;100.00;92592.22;5029750;28;20398;-79
2022/04/18 10:34:22;;;;;;;4.22;2.78;;;;;;;2.79;100.00;92583.75;5031006;28;20041;-78
2022/04/18 10:36:54;;;;;;;8.52;6.90;;;;;;;3.01;100.00;92591.41;5030927;28;20045;-79
2022/04/18 10:39:21;;;;;;;5.20;3.28;;;;;;;3.20;100.00;92589.28;5030788;28;20045;-79
2022/04/18 10:41:50;;;;;;;7.03;3.88;;;;;;;3.45;100.00;92588.91;5031084;28;20046;-79
2022/04/18 10:44:18;;;;;;;5.70;3.38;;;;;;;3.46;100.00;92593.03;5030571;28;20054;-79
2022/04/18 10:47:04;;;;;;;3.65;2.63;;;;;;;3.00;100.00;92589.84;5030903;28;20190;-79
2022/04/18 10:49:32;;;;;;;4.30;2.40;;;;;;;3.03;100.00;92593.75;5030684;28;20095;-79
2022/04/18 10:52:08;;;;;;;6.38;4.20;;;;;;;3.10;100.00;92596.38;5030683;28;20075;-79
2022/04/18 10:54:36;;;;;;;5.15;2.92;;;;;;;3.02;100.00;92590.44;5030594;28;20050;-78
2022/04/18 10:57:05;;;;;;;6.93;3.92;;;;;;;2.70;100.00;92568.81;5030517;28;20038;-79
2022/04/18 10:59:35;;;;;;;4.20;2.00;;;;;;;2.76;100.00;92576.50;5030182;28;20049;-79
2022/04/18 11:02:05;;;;;;;4.70;3.25;;;;;;;2.63;100.00;92576.31;5030568;28;20481;-79
2022/04/18 11:04:33;;;;;;;4.32;2.67;;;;;;;2.62;100.00;92573.03;5030486;28;20065;-78
2022/04/18 11:07:02;;;;;;;5.50;3.03;;;;;;;2.57;100.00;92567.69;5030248;28;20073;-79
2022/04/18 11:09:31;;;;;;;9.07;5.00;;;;;;;2.89;100.00;92573.34;5030484;28;20128;-79
2022/04/18 11:12:08;;;;;;;5.68;3.05;;;;;;;2.94;100.00;92582.94;5030709;28;20061;-79
2022/04/18 11:14:54;;;;;;;8.02;4.25;;;;;;;3.01;100.00;92578.72;5030612;28;20041;-79
2022/04/18 11:17:33;;;;;;;4.65;2.80;;;;;;;2.79;100.00;92582.97;5030680;28;20393;-79
2022/04/18 11:20:27;;;;;;;5.78;2.80;;;;;;;2.92;100.00;92565.34;5030296;28;20048;-79
2022/04/18 11:23:17;;;;;;;3.80;2.60;;;;;;;3.12;100.00;92587.63;5010696;28;20050;-79
2022/04/18 11:25:52;;;;;;;4.80;2.88;;;;;;;3.09;100.00;92551.69;5010098;28;20100;-79
2022/04/18 11:28:19;;;;;;;6.40;3.00;;;;;;;3.34;100.00;92574.97;5010355;28;20374;-79
2022/04/18 11:30:46;;;;;;;5.93;2.90;;;;;;;3.23;100.00;92583.06;5010558;28;20153;-79
2022/04/18 11:33:14;;;;;;;3.65;2.30;;;;;;;3.36;100.00;92583.16;5010008;28;20500;-79
2022/04/18 11:35:41;;;;;;;4.97;2.55;;;;;;;3.31;100.00;92580.38;5010240;28;20100;-79
2022/04/18 11:38:09;;;;;;;5.80;3.45;;;;;;;3.32;100.00;92575.13;5010353;28;20049;-79
2022/04/18 11:40:37;;;;;;;3.72;2.60;;;;;;;3.37;100.00;92579.66;5010487;28;20049;-79
2022/04/18 11:43:11;;;;;;;5.53;3.83;;;;;;;3.04;100.00;92580.91;5009810;28;20046;-80
2022/04/18 11:45:38;;;;;;;8.90;3.42;;;;;;;3.19;100.00;92565.63;5009958;28;20049;-79
2022/04/18 11:48:06;;;;;;;4.35;3.00;;;;;;;3.26;100.00;92582.69;5009182;28;20493;-79
2022/04/18 11:50:37;;;;;;;5.35;3.25;;;;;;;3.04;100.00;92582.66;5010214;28;20096;-79
2022/04/18 11:53:06;;;;;;;6.55;3.95;;;;;;;3.16;100.00;92585.50;5009997;28;20116;-79
2022/04/18 11:55:33;;;;;;;5.85;3.38;;;;;;;3.27;100.00;92584.25;5009811;28;20044;-79
2022/04/18 11:58:00;;;;;;;5.25;3.38;;;;;;;3.48;100.00;92583.50;5010023;28;20397;-79